sensor_id;sensor_type;location;lat;lon;timestamp;pressure;altitude;pressure_sealevel;temperature;humidity
84835;BME280;75078;42.636;23.198;2024-02-23T00:02:17;91840.44;;;6.20;65.75
84835;BME280;75078;42.636;23.198;2024-02-23T00:04:42;91826.59;;;6.21;65.42
84835;BME280;75078;42.636;23.198;2024-02-23T00:07:08;91831.69;;;6.33;65.45
84835;BME280;75078;42.636;23.198;2024-02-23T00:09:33;91840.81;;;6.34;65.63
84835;BME280;75078;42.636;23.198;2024-02-23T00:11:59;91826.03;;;6.27;65.54
84835;BME280;75078;42.636;23.198;2024-02-23T00:14:24;91826.59;;;6.21;65.49
84835;BME280;75078;42.636;23.198;2024-02-23T00:16:49;91812.09;;;6.25;65.57
84835;BME280;75078;42.636;23.198;2024-02-23T00:19:15;91820.38;;;6.34;65.09
84835;BME280;75078;42.636;23.198;2024-02-23T00:21:43;91820.47;;;6.37;64.51
84835;BME280;75078;42.636;23.198;2024-02-23T00:24:12;91813.31;;;6.43;64.30
84835;BME280;75078;42.636;23.198;2024-02-23T00:26:38;91826.63;;;6.48;63.78
84835;BME280;75078;42.636;23.198;2024-02-23T00:29:03;91811.84;;;6.42;64.42
84835;BME280;75078;42.636;23.198;2024-02-23T00:31:29;91819.94;;;6.44;65.11
84835;BME280;75078;42.636;23.198;2024-02-23T00:33:54;91809.69;;;6.44;63.41
84835;BME280;75078;42.636;23.198;2024-02-23T00:36:19;91824.06;;;6.48;63.51
84835;BME280;75078;42.636;23.198;2024-02-23T00:38:45;91825.94;;;6.51;63.59
84835;BME280;75078;42.636;23.198;2024-02-23T00:41:10;91808.38;;;6.50;63.47
84835;BME280;75078;42.636;23.198;2024-02-23T00:43:39;91802.63;;;6.53;63.20
84835;BME280;75078;42.636;23.198;2024-02-23T00:46:04;91799.75;;;6.55;63.08
84835;BME280;75078;42.636;23.198;2024-02-23T00:48:30;91804.78;;;6.51;63.83
84835;BME280;75078;42.636;23.198;2024-02-23T00:50:55;91800.94;;;6.45;63.97
84835;BME280;75078;42.636;23.198;2024-02-23T00:53:20;91787.66;;;6.39;64.49
84835;BME280;75078;42.636;23.198;2024-02-23T00:55:47;91788.41;;;6.40;63.84
84835;BME280;75078;42.636;23.198;2024-02-23T00:58:12;91790.00;;;6.44;63.76
84835;BME280;75078;42.636;23.198;2024-02-23T01:00:37;91784.78;;;6.41;63.87
84835;BME280;75078;42.636;23.198;2024-02-23T01:03:03;91777.09;;;6.41;64.62
84835;BME280;75078;42.636;23.198;2024-02-23T01:05:28;91771.06;;;6.33;64.01
84835;BME280;75078;42.636;23.198;2024-02-23T01:07:54;91778.19;;;6.40;64.21
84835;BME280;75078;42.636;23.198;2024-02-23T01:10:19;91779.31;;;6.42;63.03
84835;BME280;75078;42.636;23.198;2024-02-23T01:12:44;91771.75;;;6.46;63.32
84835;BME280;75078;42.636;23.198;2024-02-23T01:15:10;91770.19;;;6.41;63.56
84835;BME280;75078;42.636;23.198;2024-02-23T01:17:35;91775.38;;;6.45;63.50
84835;BME280;75078;42.636;23.198;2024-02-23T01:20:01;91768.78;;;6.44;62.82
84835;BME280;75078;42.636;23.198;2024-02-23T01:22:26;91765.09;;;6.57;62.39
84835;BME280;75078;42.636;23.198;2024-02-23T01:24:51;91759.16;;;6.53;62.32
84835;BME280;75078;42.636;23.198;2024-02-23T01:27:17;91768.53;;;6.49;62.29
84835;BME280;75078;42.636;23.198;2024-02-23T01:29:43;91772.78;;;6.57;62.16
84835;BME280;75078;42.636;23.198;2024-02-23T01:32:09;91753.53;;;6.47;62.15
84835;BME280;75078;42.636;23.198;2024-02-23T01:34:34;91766.09;;;6.53;62.38
84835;BME280;75078;42.636;23.198;2024-02-23T01:36:59;91751.50;;;6.53;62.43
84835;BME280;75078;42.636;23.198;2024-02-23T01:39:25;91758.31;;;6.49;62.56
84835;BME280;75078;42.636;23.198;2024-02-23T01:41:50;91748.53;;;6.51;62.62
84835;BME280;75078;42.636;23.198;2024-02-23T01:44:15;91751.31;;;6.46;62.78
84835;BME280;75078;42.636;23.198;2024-02-23T01:46:43;91753.44;;;6.44;62.27
84835;BME280;75078;42.636;23.198;2024-02-23T01:49:09;91746.94;;;6.46;62.60
84835;BME280;75078;42.636;23.198;2024-02-23T01:51:35;91755.59;;;6.42;62.46
84835;BME280;75078;42.636;23.198;2024-02-23T01:54:01;91746.00;;;6.39;63.03
84835;BME280;75078;42.636;23.198;2024-02-23T01:56:28;91744.94;;;6.40;63.19
84835;BME280;75078;42.636;23.198;2024-02-23T01:58:55;91741.72;;;6.43;62.89
84835;BME280;75078;42.636;23.198;2024-02-23T02:01:20;91735.78;;;6.39;62.79
84835;BME280;75078;42.636;23.198;2024-02-23T02:03:46;91734.63;;;6.36;63.67
84835;BME280;75078;42.636;23.198;2024-02-23T02:06:11;91738.00;;;6.40;63.04
84835;BME280;75078;42.636;23.198;2024-02-23T02:08:38;91724.41;;;6.36;63.22
84835;BME280;75078;42.636;23.198;2024-02-23T02:11:03;91730.50;;;6.32;63.47
84835;BME280;75078;42.636;23.198;2024-02-23T02:13:29;91716.66;;;6.33;63.13
84835;BME280;75078;42.636;23.198;2024-02-23T02:15:55;91723.16;;;6.30;62.96
84835;BME280;75078;42.636;23.198;2024-02-23T02:18:20;91716.66;;;6.33;63.15
84835;BME280;75078;42.636;23.198;2024-02-23T02:20:54;91723.16;;;6.30;63.68
84835;BME280;75078;42.636;23.198;2024-02-23T02:23:30;91722.81;;;6.32;63.33
84835;BME280;75078;42.636;23.198;2024-02-23T02:25:57;91725.63;;;6.42;62.67
84835;BME280;75078;42.636;23.198;2024-02-23T02:28:23;91718.13;;;6.34;63.40
84835;BME280;75078;42.636;23.198;2024-02-23T02:30:49;91727.50;;;6.30;62.86
84835;BME280;75078;42.636;23.198;2024-02-23T02:33:15;91731.06;;;6.25;63.04
84835;BME280;75078;42.636;23.198;2024-02-23T02:35:40;91731.69;;;6.22;63.43
84835;BME280;75078;42.636;23.198;2024-02-23T02:38:06;91718.84;;;6.19;62.77
84835;BME280;75078;42.636;23.198;2024-02-23T02:40:31;91735.91;;;6.15;63.94
84835;BME280;75078;42.636;23.198;2024-02-23T02:42:57;91723.94;;;6.19;62.88
84835;BME280;75078;42.636;23.198;2024-02-23T02:45:23;91730.22;;;6.21;63.08
84835;BME280;75078;42.636;23.198;2024-02-23T02:47:49;91724.59;;;6.16;62.34
84835;BME280;75078;42.636;23.198;2024-02-23T02:50:14;91733.53;;;6.22;61.92
84835;BME280;75078;42.636;23.198;2024-02-23T02:52:39;91734.13;;;6.31;61.74
84835;BME280;75078;42.636;23.198;2024-02-23T02:55:05;91735.59;;;6.32;61.61
84835;BME280;75078;42.636;23.198;2024-02-23T02:57:30;91728.91;;;6.27;62.46
84835;BME280;75078;42.636;23.198;2024-02-23T02:59:56;91735.38;;;6.37;61.76
84835;BME280;75078;42.636;23.198;2024-02-23T03:02:21;91737.59;;;6.38;62.37
84835;BME280;75078;42.636;23.198;2024-02-23T03:04:50;91729.16;;;6.38;61.53
84835;BME280;75078;42.636;23.198;2024-02-23T03:07:16;91746.34;;;6.37;61.40
84835;BME280;75078;42.636;23.198;2024-02-23T03:09:42;91742.28;;;6.36;61.88
84835;BME280;75078;42.636;23.198;2024-02-23T03:12:07;91736.34;;;6.32;61.65
84835;BME280;75078;42.636;23.198;2024-02-23T03:14:33;91741.88;;;6.34;61.43
84835;BME280;75078;42.636;23.198;2024-02-23T03:16:59;91734.53;;;6.33;61.34
84835;BME280;75078;42.636;23.198;2024-02-23T03:19:24;91732.06;;;6.36;61.57
84835;BME280;75078;42.636;23.198;2024-02-23T03:21:51;91737.94;;;6.37;60.95
84835;BME280;75078;42.636;23.198;2024-02-23T03:24:16;91738.09;;;6.44;61.24
84835;BME280;75078;42.636;23.198;2024-02-23T03:26:41;91739.84;;;6.40;61.24
84835;BME280;75078;42.636;23.198;2024-02-23T03:29:07;91735.78;;;6.39;61.60
84835;BME280;75078;42.636;23.198;2024-02-23T03:31:32;91737.94;;;6.37;61.55
84835;BME280;75078;42.636;23.198;2024-02-23T03:33:57;91739.66;;;6.33;61.31
84835;BME280;75078;42.636;23.198;2024-02-23T03:36:23;91748.59;;;6.27;61.63
84835;BME280;75078;42.636;23.198;2024-02-23T03:38:48;91739.25;;;6.31;61.66
84835;BME280;75078;42.636;23.198;2024-02-23T03:41:14;91756.47;;;6.34;61.25
84835;BME280;75078;42.636;23.198;2024-02-23T03:43:39;91748.03;;;6.33;61.41
84835;BME280;75078;42.636;23.198;2024-02-23T03:46:06;91739.66;;;6.33;60.89
84835;BME280;75078;42.636;23.198;2024-02-23T03:48:31;91741.97;;;6.38;60.56
84835;BME280;75078;42.636;23.198;2024-02-23T03:50:57;91742.28;;;6.36;61.30
84835;BME280;75078;42.636;23.198;2024-02-23T03:53:22;91749.03;;;6.29;62.22
84835;BME280;75078;42.636;23.198;2024-02-23T03:55:48;91740.81;;;6.35;61.05
84835;BME280;75078;42.636;23.198;2024-02-23T03:58:13;91743.47;;;6.39;60.51
84835;BME280;75078;42.636;23.198;2024-02-23T04:00:38;91743.50;;;6.27;61.70
84835;BME280;75078;42.636;23.198;2024-02-23T04:03:04;91748.72;;;6.30;61.20
84835;BME280;75078;42.636;23.198;2024-02-23T04:05:29;91747.50;;;6.40;60.72
84835;BME280;75078;42.636;23.198;2024-02-23T04:07:55;91749.72;;;6.41;60.45
84835;BME280;75078;42.636;23.198;2024-02-23T04:10:20;91755.63;;;6.30;61.28
84835;BME280;75078;42.636;23.198;2024-02-23T04:12:48;91757.56;;;6.33;61.80
84835;BME280;75078;42.636;23.198;2024-02-23T04:15:14;91756.28;;;6.27;62.24
84835;BME280;75078;42.636;23.198;2024-02-23T04:17:39;91750.94;;;6.32;61.28
84835;BME280;75078;42.636;23.198;2024-02-23T04:20:08;91752.25;;;6.26;61.48
84835;BME280;75078;42.636;23.198;2024-02-23T04:22:37;91753.72;;;6.27;61.53
84835;BME280;75078;42.636;23.198;2024-02-23T04:25:03;91750.94;;;6.32;60.93
84835;BME280;75078;42.636;23.198;2024-02-23T04:27:28;91750.09;;;6.28;61.24
84835;BME280;75078;42.636;23.198;2024-02-23T04:29:54;91738.38;;;6.27;62.02
84835;BME280;75078;42.636;23.198;2024-02-23T04:32:19;91747.88;;;6.26;61.38
84835;BME280;75078;42.636;23.198;2024-02-23T04:34:44;91744.47;;;6.22;61.93
84835;BME280;75078;42.636;23.198;2024-02-23T04:37:10;91741.84;;;6.19;61.94
84835;BME280;75078;42.636;23.198;2024-02-23T04:39:35;91743.00;;;6.21;61.54
84835;BME280;75078;42.636;23.198;2024-02-23T04:42:00;91742.47;;;6.16;61.94
84835;BME280;75078;42.636;23.198;2024-02-23T04:44:26;91752.69;;;6.16;62.34
84835;BME280;75078;42.636;23.198;2024-02-23T04:46:51;91752.69;;;6.16;61.93
84835;BME280;75078;42.636;23.198;2024-02-23T04:49:16;91757.72;;;6.12;62.23
84835;BME280;75078;42.636;23.198;2024-02-23T04:51:42;91743.16;;;6.13;62.38
84835;BME280;75078;42.636;23.198;2024-02-23T04:54:07;91739.16;;;6.15;63.10
84835;BME280;75078;42.636;23.198;2024-02-23T04:56:33;91744.41;;;6.19;62.10
84835;BME280;75078;42.636;23.198;2024-02-23T04:59:01;91751.66;;;6.17;62.02
84835;BME280;75078;42.636;23.198;2024-02-23T05:01:26;91755.66;;;6.18;62.67
84835;BME280;75078;42.636;23.198;2024-02-23T05:03:52;91755.59;;;6.14;62.23
84835;BME280;75078;42.636;23.198;2024-02-23T05:06:17;91750.38;;;6.11;62.15
84835;BME280;75078;42.636;23.198;2024-02-23T05:08:43;91762.91;;;6.16;62.88
84835;BME280;75078;42.636;23.198;2024-02-23T05:11:09;91754.19;;;6.17;62.01
84835;BME280;75078;42.636;23.198;2024-02-23T05:13:35;91766.31;;;6.20;62.22
84835;BME280;75078;42.636;23.198;2024-02-23T05:16:02;91755.03;;;6.21;62.01
84835;BME280;75078;42.636;23.198;2024-02-23T05:18:27;91755.03;;;6.21;63.04
84835;BME280;75078;42.636;23.198;2024-02-23T05:20:53;91755.78;;;6.21;63.33
84835;BME280;75078;42.636;23.198;2024-02-23T05:23:18;91767.19;;;6.12;62.95
84835;BME280;75078;42.636;23.198;2024-02-23T05:25:43;91756.16;;;6.08;63.38
84835;BME280;75078;42.636;23.198;2024-02-23T05:28:09;91760.78;;;6.18;62.58
84835;BME280;75078;42.636;23.198;2024-02-23T05:30:34;91762.47;;;6.26;63.39
84835;BME280;75078;42.636;23.198;2024-02-23T05:32:59;91760.16;;;6.21;63.09
84835;BME280;75078;42.636;23.198;2024-02-23T05:35:28;91762.28;;;6.19;62.53
84835;BME280;75078;42.636;23.198;2024-02-23T05:37:53;91764.81;;;6.31;62.64
84835;BME280;75078;42.636;23.198;2024-02-23T05:40:19;91765.88;;;6.18;63.40
84835;BME280;75078;42.636;23.198;2024-02-23T05:42:44;91769.63;;;6.20;62.99
84835;BME280;75078;42.636;23.198;2024-02-23T05:45:10;91769.72;;;6.24;62.77
84835;BME280;75078;42.636;23.198;2024-02-23T05:47:37;91755.66;;;6.18;63.44
84835;BME280;75078;42.636;23.198;2024-02-23T05:50:03;91770.38;;;6.21;63.03
84835;BME280;75078;42.636;23.198;2024-02-23T05:52:31;91775.47;;;6.21;63.74
84835;BME280;75078;42.636;23.198;2024-02-23T05:54:56;91772.91;;;6.21;63.79
84835;BME280;75078;42.636;23.198;2024-02-23T05:57:21;91776.97;;;6.22;64.04
84835;BME280;75078;42.636;23.198;2024-02-23T05:59:47;91778.38;;;6.19;64.07
84835;BME280;75078;42.636;23.198;2024-02-23T06:02:13;91776.97;;;6.22;63.60
84835;BME280;75078;42.636;23.198;2024-02-23T06:04:40;91783.56;;;6.23;62.69
84835;BME280;75078;42.636;23.198;2024-02-23T06:07:05;91787.38;;;6.29;62.66
84835;BME280;75078;42.636;23.198;2024-02-23T06:09:30;91799.72;;;6.27;63.62
84835;BME280;75078;42.636;23.198;2024-02-23T06:11:56;91795.69;;;6.26;63.47
84835;BME280;75078;42.636;23.198;2024-02-23T06:14:21;91791.66;;;6.25;62.92
84835;BME280;75078;42.636;23.198;2024-02-23T06:16:48;91793.41;;;6.36;62.99
84835;BME280;75078;42.636;23.198;2024-02-23T06:19:14;91796.09;;;6.40;62.61
84835;BME280;75078;42.636;23.198;2024-02-23T06:21:39;91799.28;;;6.37;63.05
84835;BME280;75078;42.636;23.198;2024-02-23T06:24:05;91797.69;;;6.32;63.43
84835;BME280;75078;42.636;23.198;2024-02-23T06:26:30;91808.41;;;6.38;63.73
84835;BME280;75078;42.636;23.198;2024-02-23T06:28:55;91796.50;;;6.42;63.29
84835;BME280;75078;42.636;23.198;2024-02-23T06:31:21;91804.81;;;6.39;63.32
84835;BME280;75078;42.636;23.198;2024-02-23T06:33:46;91809.03;;;6.47;63.13
84835;BME280;75078;42.636;23.198;2024-02-23T06:36:14;91804.50;;;6.56;63.17
84835;BME280;75078;42.636;23.198;2024-02-23T06:38:39;91803.13;;;6.59;62.82
84835;BME280;75078;42.636;23.198;2024-02-23T06:41:05;91810.03;;;6.58;63.46
84835;BME280;75078;42.636;23.198;2024-02-23T06:43:30;91804.41;;;6.65;62.74
84835;BME280;75078;42.636;23.198;2024-02-23T06:45:56;91810.34;;;6.69;63.31
84835;BME280;75078;42.636;23.198;2024-02-23T06:48:23;91801.00;;;6.76;62.42
84835;BME280;75078;42.636;23.198;2024-02-23T06:50:49;91805.66;;;6.86;62.05
84835;BME280;75078;42.636;23.198;2024-02-23T06:53:14;91808.22;;;6.86;62.33
84835;BME280;75078;42.636;23.198;2024-02-23T06:55:40;91807.31;;;6.94;61.53
84835;BME280;75078;42.636;23.198;2024-02-23T06:58:05;91808.16;;;6.98;61.54
84835;BME280;75078;42.636;23.198;2024-02-23T07:00:32;91807.50;;;7.01;60.99
84835;BME280;75078;42.636;23.198;2024-02-23T07:02:58;91817.25;;;7.11;60.62
84835;BME280;75078;42.636;23.198;2024-02-23T07:05:24;91801.56;;;7.13;60.87
84835;BME280;75078;42.636;23.198;2024-02-23T07:07:50;91799.41;;;7.15;60.46
84835;BME280;75078;42.636;23.198;2024-02-23T07:10:15;91802.13;;;7.22;59.68
84835;BME280;75078;42.636;23.198;2024-02-23T07:12:43;91822.03;;;7.29;60.03
84835;BME280;75078;42.636;23.198;2024-02-23T07:15:09;91800.25;;;7.35;59.84
84835;BME280;75078;42.636;23.198;2024-02-23T07:17:34;91807.00;;;7.43;59.35
84835;BME280;75078;42.636;23.198;2024-02-23T07:20:00;91807.84;;;7.47;58.99
84835;BME280;75078;42.636;23.198;2024-02-23T07:22:33;91811.53;;;7.49;59.87
84835;BME280;75078;42.636;23.198;2024-02-23T07:24:59;91816.25;;;7.63;59.36
84835;BME280;75078;42.636;23.198;2024-02-23T07:27:25;91803.25;;;7.71;59.38
84835;BME280;75078;42.636;23.198;2024-02-23T07:29:51;91810.34;;;7.78;58.28
84835;BME280;75078;42.636;23.198;2024-02-23T07:32:16;91799.50;;;8.00;57.48
84835;BME280;75078;42.636;23.198;2024-02-23T07:34:42;91802.66;;;8.13;58.10
84835;BME280;75078;42.636;23.198;2024-02-23T07:37:07;91807.50;;;8.33;56.31
84835;BME280;75078;42.636;23.198;2024-02-23T07:39:33;91808.06;;;8.42;56.86
84835;BME280;75078;42.636;23.198;2024-02-23T07:41:58;91798.84;;;8.41;56.55
84835;BME280;75078;42.636;23.198;2024-02-23T07:44:23;91808.59;;;8.51;57.02
84835;BME280;75078;42.636;23.198;2024-02-23T07:46:50;91806.91;;;8.59;56.98
84835;BME280;75078;42.636;23.198;2024-02-23T07:49:17;91817.38;;;8.70;55.38
84835;BME280;75078;42.636;23.198;2024-02-23T07:51:43;91816.41;;;8.78;54.46
84835;BME280;75078;42.636;23.198;2024-02-23T07:54:08;91812.91;;;8.86;56.20
84835;BME280;75078;42.636;23.198;2024-02-23T07:56:34;91809.47;;;9.01;55.14
84835;BME280;75078;42.636;23.198;2024-02-23T07:58:59;91809.59;;;9.08;55.45
84835;BME280;75078;42.636;23.198;2024-02-23T08:01:25;91800.31;;;9.22;53.40
84835;BME280;75078;42.636;23.198;2024-02-23T08:03:51;91802.06;;;9.41;53.62
84835;BME280;75078;42.636;23.198;2024-02-23T08:06:16;91798.44;;;9.42;53.11
84835;BME280;75078;42.636;23.198;2024-02-23T08:08:41;91808.03;;;9.45;53.29
84835;BME280;75078;42.636;23.198;2024-02-23T08:11:06;91802.97;;;9.52;54.78
84835;BME280;75078;42.636;23.198;2024-02-23T08:13:32;91812.41;;;9.67;53.00
84835;BME280;75078;42.636;23.198;2024-02-23T08:15:58;91804.28;;;9.91;53.86
84835;BME280;75078;42.636;23.198;2024-02-23T08:18:23;91827.91;;;10.00;53.66
84835;BME280;75078;42.636;23.198;2024-02-23T08:20:49;91820.41;;;9.88;52.42
84835;BME280;75078;42.636;23.198;2024-02-23T08:23:14;91822.19;;;9.84;53.42
84835;BME280;75078;42.636;23.198;2024-02-23T08:25:40;91820.50;;;9.95;51.72
84835;BME280;75078;42.636;23.198;2024-02-23T08:28:06;91818.63;;;10.19;53.67
84835;BME280;75078;42.636;23.198;2024-02-23T08:30:32;91798.75;;;10.16;52.03
84835;BME280;75078;42.636;23.198;2024-02-23T08:32:57;91814.16;;;10.12;52.57
84835;BME280;75078;42.636;23.198;2024-02-23T08:35:22;91815.41;;;10.25;52.17
84835;BME280;75078;42.636;23.198;2024-02-23T08:37:48;91826.53;;;10.33;51.16
84835;BME280;75078;42.636;23.198;2024-02-23T08:40:13;91825.59;;;10.44;50.32
84835;BME280;75078;42.636;23.198;2024-02-23T08:42:38;91823.25;;;10.36;52.45
84835;BME280;75078;42.636;23.198;2024-02-23T08:45:04;91819.53;;;10.63;51.12
84835;BME280;75078;42.636;23.198;2024-02-23T08:47:30;91812.69;;;10.74;50.53
84835;BME280;75078;42.636;23.198;2024-02-23T08:49:59;91823.09;;;10.85;50.15
84835;BME280;75078;42.636;23.198;2024-02-23T08:52:24;91823.09;;;10.85;51.97
84835;BME280;75078;42.636;23.198;2024-02-23T08:54:51;91826.09;;;10.90;50.85
84835;BME280;75078;42.636;23.198;2024-02-23T08:57:16;91831.25;;;10.57;52.13
84835;BME280;75078;42.636;23.198;2024-02-23T08:59:47;91826.09;;;10.57;51.78
84835;BME280;75078;42.636;23.198;2024-02-23T09:02:12;91832.56;;;10.73;52.20
84835;BME280;75078;42.636;23.198;2024-02-23T09:04:38;91825.41;;;10.93;51.62
84835;BME280;75078;42.636;23.198;2024-02-23T09:07:03;91822.59;;;11.05;51.69
84835;BME280;75078;42.636;23.198;2024-02-23T09:09:29;91828.66;;;11.27;50.55
84835;BME280;75078;42.636;23.198;2024-02-23T09:11:55;91825.63;;;11.14;50.70
84835;BME280;75078;42.636;23.198;2024-02-23T09:14:20;91827.06;;;11.12;50.98
84835;BME280;75078;42.636;23.198;2024-02-23T09:16:46;91828.59;;;11.20;51.00
84835;BME280;75078;42.636;23.198;2024-02-23T09:19:12;91832.06;;;11.34;50.35
84835;BME280;75078;42.636;23.198;2024-02-23T09:21:38;91832.91;;;11.09;49.33
84835;BME280;75078;42.636;23.198;2024-02-23T09:24:04;91842.19;;;10.80;50.45
84835;BME280;75078;42.636;23.198;2024-02-23T09:26:29;91834.19;;;10.89;50.08
84835;BME280;75078;42.636;23.198;2024-02-23T09:28:55;91828.34;;;10.95;51.07
84835;BME280;75078;42.636;23.198;2024-02-23T09:31:20;91836.16;;;11.02;50.61
84835;BME280;75078;42.636;23.198;2024-02-23T09:33:45;91836.75;;;11.25;50.68
84835;BME280;75078;42.636;23.198;2024-02-23T09:36:11;91832.06;;;11.34;49.28
84835;BME280;75078;42.636;23.198;2024-02-23T09:38:37;91831.38;;;11.41;48.74
84835;BME280;75078;42.636;23.198;2024-02-23T09:41:03;91820.94;;;11.67;48.56
84835;BME280;75078;42.636;23.198;2024-02-23T09:43:29;91827.59;;;11.72;48.09
84835;BME280;75078;42.636;23.198;2024-02-23T09:45:59;91813.34;;;11.88;48.73
84835;BME280;75078;42.636;23.198;2024-02-23T09:48:24;91808.94;;;11.89;48.48
84835;BME280;75078;42.636;23.198;2024-02-23T09:50:51;91802.66;;;11.90;48.30
84835;BME280;75078;42.636;23.198;2024-02-23T09:53:19;91816.78;;;12.03;48.38
84835;BME280;75078;42.636;23.198;2024-02-23T09:55:45;91818.72;;;12.20;47.75
84835;BME280;75078;42.636;23.198;2024-02-23T09:58:13;91806.63;;;12.38;46.86
84835;BME280;75078;42.636;23.198;2024-02-23T10:00:42;91799.84;;;12.09;46.16
84835;BME280;75078;42.636;23.198;2024-02-23T10:03:08;91805.06;;;12.19;46.63
84835;BME280;75078;42.636;23.198;2024-02-23T10:05:34;91805.59;;;12.50;47.68
84835;BME280;75078;42.636;23.198;2024-02-23T10:07:59;91800.84;;;12.62;46.12
84835;BME280;75078;42.636;23.198;2024-02-23T10:10:33;91803.41;;;12.62;45.27
84835;BME280;75078;42.636;23.198;2024-02-23T10:13:00;91796.34;;;12.45;46.90
84835;BME280;75078;42.636;23.198;2024-02-23T10:15:28;91799.38;;;12.61;44.45
84835;BME280;75078;42.636;23.198;2024-02-23T10:17:55;91801.31;;;12.89;45.85
84835;BME280;75078;42.636;23.198;2024-02-23T10:20:20;91801.66;;;12.87;45.28
84835;BME280;75078;42.636;23.198;2024-02-23T10:22:46;91793.63;;;13.07;45.04
84835;BME280;75078;42.636;23.198;2024-02-23T10:25:11;91795.78;;;12.98;44.45
84835;BME280;75078;42.636;23.198;2024-02-23T10:27:37;91798.19;;;12.41;45.69
84835;BME280;75078;42.636;23.198;2024-02-23T10:30:02;91810.13;;;12.02;46.56
84835;BME280;75078;42.636;23.198;2024-02-23T10:32:29;91799.94;;;12.27;47.06
84835;BME280;75078;42.636;23.198;2024-02-23T10:35:00;91778.00;;;12.78;44.99
84835;BME280;75078;42.636;23.198;2024-02-23T10:37:29;91796.44;;;12.66;45.22
84835;BME280;75078;42.636;23.198;2024-02-23T10:39:57;91774.34;;;12.93;45.53
84835;BME280;75078;42.636;23.198;2024-02-23T10:42:24;91758.94;;;13.15;45.18
84835;BME280;75078;42.636;23.198;2024-02-23T10:44:53;91764.84;;;13.33;43.66
84835;BME280;75078;42.636;23.198;2024-02-23T10:47:21;91759.31;;;13.20;42.32
84835;BME280;75078;42.636;23.198;2024-02-23T10:49:47;91783.53;;;12.70;44.60
84835;BME280;75078;42.636;23.198;2024-02-23T10:52:13;91770.69;;;13.02;45.44
84835;BME280;75078;42.636;23.198;2024-02-23T10:54:40;91776.31;;;13.35;44.34
84835;BME280;75078;42.636;23.198;2024-02-23T10:57:06;91768.91;;;13.20;43.12
84835;BME280;75078;42.636;23.198;2024-02-23T10:59:31;91760.34;;;13.02;43.00
84835;BME280;75078;42.636;23.198;2024-02-23T11:01:58;91755.22;;;13.09;43.13
84835;BME280;75078;42.636;23.198;2024-02-23T11:04:25;91753.69;;;12.93;44.52
84835;BME280;75078;42.636;23.198;2024-02-23T11:06:52;91744.88;;;13.05;43.40
84835;BME280;75078;42.636;23.198;2024-02-23T11:09:20;91743.03;;;13.23;43.25
84835;BME280;75078;42.636;23.198;2024-02-23T11:11:57;91741.94;;;13.28;43.51
84835;BME280;75078;42.636;23.198;2024-02-23T11:14:38;91748.97;;;13.52;42.03
84835;BME280;75078;42.636;23.198;2024-02-23T11:17:04;91738.28;;;13.36;43.58
84835;BME280;75078;42.636;23.198;2024-02-23T11:19:37;91735.28;;;13.76;42.31
84835;BME280;75078;42.636;23.198;2024-02-23T11:22:03;91726.34;;;14.05;42.26
84835;BME280;75078;42.636;23.198;2024-02-23T11:24:30;91723.38;;;14.10;41.13
84835;BME280;75078;42.636;23.198;2024-02-23T11:26:59;91740.47;;;13.44;43.01
84835;BME280;75078;42.636;23.198;2024-02-23T11:29:29;91707.91;;;13.75;40.85
84835;BME280;75078;42.636;23.198;2024-02-23T11:31:54;91726.34;;;13.98;41.75
84835;BME280;75078;42.636;23.198;2024-02-23T11:34:26;91735.19;;;14.22;40.80
84835;BME280;75078;42.636;23.198;2024-02-23T11:36:51;91724.22;;;13.54;41.57
84835;BME280;75078;42.636;23.198;2024-02-23T11:39:19;91735.31;;;13.27;42.66
84835;BME280;75078;42.636;23.198;2024-02-23T11:41:44;91733.03;;;12.86;43.66
84835;BME280;75078;42.636;23.198;2024-02-23T11:44:12;91733.09;;;13.29;43.35
84835;BME280;75078;42.636;23.198;2024-02-23T11:46:38;91725.25;;;12.93;42.87
84835;BME280;75078;42.636;23.198;2024-02-23T11:49:04;91725.69;;;13.06;43.08
84835;BME280;75078;42.636;23.198;2024-02-23T11:51:29;91723.47;;;13.33;43.47
84835;BME280;75078;42.636;23.198;2024-02-23T11:53:56;91713.09;;;12.90;42.92
84835;BME280;75078;42.636;23.198;2024-02-23T11:56:23;91726.72;;;12.66;44.03
84835;BME280;75078;42.636;23.198;2024-02-23T11:58:48;91713.06;;;12.66;43.27
84835;BME280;75078;42.636;23.198;2024-02-23T12:01:14;91703.50;;;13.02;43.81
84835;BME280;75078;42.636;23.198;2024-02-23T12:03:39;91713.88;;;13.44;41.80
84835;BME280;75078;42.636;23.198;2024-02-23T12:06:06;91716.81;;;13.46;42.98
84835;BME280;75078;42.636;23.198;2024-02-23T12:08:32;91712.38;;;13.57;41.36
84835;BME280;75078;42.636;23.198;2024-02-23T12:11:03;91705.38;;;13.33;42.04
84835;BME280;75078;42.636;23.198;2024-02-23T12:13:29;91708.72;;;13.09;41.99
84835;BME280;75078;42.636;23.198;2024-02-23T12:15:54;91689.81;;;12.76;43.19
84835;BME280;75078;42.636;23.198;2024-02-23T12:18:23;91708.25;;;12.57;44.01
84835;BME280;75078;42.636;23.198;2024-02-23T12:20:51;91710.44;;;12.55;42.80
84835;BME280;75078;42.636;23.198;2024-02-23T12:23:17;91693.47;;;12.54;42.13
84835;BME280;75078;42.636;23.198;2024-02-23T12:26:01;91685.03;;;12.78;43.29
84835;BME280;75078;42.636;23.198;2024-02-23T12:28:26;91690.22;;;13.52;41.68
84835;BME280;75078;42.636;23.198;2024-02-23T12:31:04;91680.22;;;13.61;40.36
84835;BME280;75078;42.636;23.198;2024-02-23T12:33:34;91685.41;;;13.58;41.56
84835;BME280;75078;42.636;23.198;2024-02-23T12:36:01;91695.41;;;13.63;40.28
84835;BME280;75078;42.636;23.198;2024-02-23T12:38:27;91693.19;;;13.58;40.62
84835;BME280;75078;42.636;23.198;2024-02-23T12:40:53;91681.34;;;13.64;40.22
84835;BME280;75078;42.636;23.198;2024-02-23T12:43:18;91685.09;;;13.38;41.74
84835;BME280;75078;42.636;23.198;2024-02-23T12:45:47;91678.81;;;13.43;41.19
84835;BME280;75078;42.636;23.198;2024-02-23T12:48:16;91685.84;;;13.32;40.92
84835;BME280;75078;42.636;23.198;2024-02-23T12:50:42;91674.72;;;13.35;40.78
84835;BME280;75078;42.636;23.198;2024-02-23T12:53:10;91679.94;;;13.14;40.54